Time;durP1;ratioP1;P1;durP2;ratioP2;P2;SDS_P1;SDS_P2;PMS_P1;PMS_P2;Temp;Humidity;BMP_temperature;BMP_pressure;BME280_temperature;BME280_humidity;BME280_pressure;Samples;Min_cycle;Max_cycle;Signal;HPM_P1;HPM_P2
2022/06/27 00:00:26;;;;;;;13.77;6.57;;;17.20;99.90;;;;;;6101155;23;20096;-73
2022/06/27 00:02:55;;;;;;;11.95;7.30;;;17.10;99.90;;;;;;6127788;23;20573;-74
2022/06/27 00:05:21;;;;;;;11.80;7.70;;;17.10;99.90;;;;;;6054364;23;20279;-74
2022/06/27 00:07:47;;;;;;;11.65;7.20;;;17.10;99.90;;;;;;6101369;23;20013;-73
2022/06/27 00:10:13;;;;;;;11.25;7.50;;;17.00;99.90;;;;;;6076634;23;20006;-75
2022/06/27 00:12:39;;;;;;;15.32;7.88;;;17.00;99.90;;;;;;6127783;23;20018;-74
2022/06/27 00:15:06;;;;;;;9.85;7.13;;;17.00;99.90;;;;;;6101570;23;20333;-74
2022/06/27 00:17:38;;;;;;;12.88;7.88;;;16.90;99.90;;;;;;6077174;23;20017;-74
2022/06/27 00:20:04;;;;;;;13.80;8.23;;;16.90;99.90;;;;;;6127457;23;20085;-74
2022/06/27 00:22:33;;;;;;;12.73;7.95;;;16.90;99.90;;;;;;6077084;23;20504;-73
2022/06/27 00:25:01;;;;;;;7.30;6.40;;;16.90;99.90;;;;;;6100192;23;20020;-74
2022/06/27 00:27:29;;;;;;;9.85;7.00;;;16.90;99.90;;;;;;6077032;23;20014;-74
2022/06/27 00:29:55;;;;;;;9.82;7.78;;;17.00;99.90;;;;;;6076915;23;20483;-73
2022/06/27 00:32:23;;;;;;;14.40;7.80;;;17.00;99.90;;;;;;6076783;23;20045;-75
2022/06/27 00:34:49;;;;;;;11.23;8.50;;;17.00;99.90;;;;;;6077032;23;20017;-73
2022/06/27 00:37:19;;;;;;;9.57;7.60;;;17.10;99.90;;;;;;6076518;23;20014;-74
2022/06/27 00:39:45;;;;;;;11.13;7.38;;;17.10;99.90;;;;;;6063184;23;20018;-74
2022/06/27 00:42:11;;;;;;;10.35;7.38;;;17.10;99.90;;;;;;6104653;23;20014;-74
2022/06/27 00:44:43;;;;;;;11.10;7.75;;;17.10;99.90;;;;;;6077830;23;20025;-73
2022/06/27 00:47:13;;;;;;;11.57;8.65;;;17.10;99.90;;;;;;6101465;23;20014;-73
2022/06/27 00:49:41;;;;;;;10.32;6.65;;;17.00;99.90;;;;;;6076665;23;20010;-74
2022/06/27 00:52:12;;;;;;;16.83;7.60;;;17.10;99.90;;;;;;6100976;23;20045;-74
2022/06/27 00:54:40;;;;;;;10.48;7.85;;;17.10;99.90;;;;;;6101169;23;20017;-75
2022/06/27 00:57:07;;;;;;;12.75;8.10;;;17.00;99.90;;;;;;6076763;23;20014;-73
2022/06/27 00:59:34;;;;;;;8.70;7.32;;;16.90;99.90;;;;;;6077026;23;20073;-73
2022/06/27 01:02:01;;;;;;;13.48;8.80;;;17.00;99.90;;;;;;6077048;23;20026;-74
2022/06/27 01:04:29;;;;;;;11.27;8.60;;;16.90;99.90;;;;;;6101544;23;20018;-75
2022/06/27 01:06:57;;;;;;;14.00;7.68;;;16.90;99.90;;;;;;6101119;23;20021;-74
2022/06/27 01:09:24;;;;;;;11.02;8.10;;;16.90;99.90;;;;;;6126042;23;20006;-75
2022/06/27 01:11:50;;;;;;;;;;;16.90;99.90;;;;;;6077424;23;20010;-74
2022/06/27 01:14:18;;;;;;;12.13;8.07;;;16.90;99.90;;;;;;6100951;23;19913;-74
2022/06/27 01:16:44;;;;;;;10.07;8.30;;;16.80;99.90;;;;;;6077055;23;20022;-74
2022/06/27 01:19:11;;;;;;;14.38;8.25;;;16.80;99.90;;;;;;6100369;23;20017;-74
2022/06/27 01:21:54;;;;;;;11.15;8.10;;;16.80;99.90;;;;;;6100418;23;20014;-72
2022/06/27 01:24:22;;;;;;;10.63;7.53;;;16.90;99.90;;;;;;6100795;23;20378;-74
2022/06/27 01:26:48;;;;;;;9.90;7.18;;;16.90;99.90;;;;;;6126925;23;20025;-74
2022/06/27 01:29:14;;;;;;;;;;;17.00;99.90;;;;;;6126622;23;20093;-74
2022/06/27 01:31:41;;;;;;;13.15;8.68;;;16.90;99.90;;;;;;6126805;23;20337;-73
2022/06/27 01:34:08;;;;;;;15.48;7.82;;;16.90;99.90;;;;;;6126460;23;20093;-74
2022/06/27 01:36:42;;;;;;;12.57;7.32;;;16.80;99.90;;;;;;6077477;23;20077;-74
2022/06/27 01:39:21;;;;;;;10.60;7.20;;;16.90;99.90;;;;;;6076183;23;20009;-74
2022/06/27 01:41:50;;;;;;;12.10;7.13;;;16.90;99.90;;;;;;6100595;23;20017;-73
2022/06/27 01:44:16;;;;;;;14.80;7.65;;;16.90;99.90;;;;;;6126541;23;20451;-73
2022/06/27 01:46:45;;;;;;;9.70;5.88;;;16.90;99.90;;;;;;6100322;23;20033;-73
2022/06/27 01:49:16;;;;;;;7.63;5.63;;;16.90;99.90;;;;;;6126013;23;20049;-74
2022/06/27 01:51:43;;;;;;;8.80;5.70;;;17.00;99.90;;;;;;6076486;23;20024;-73
2022/06/27 01:54:11;;;;;;;11.20;6.10;;;17.00;99.90;;;;;;6076783;23;20029;-74
2022/06/27 01:56:41;;;;;;;7.45;5.32;;;17.00;99.90;;;;;;6076351;23;20014;-74
2022/06/27 01:59:08;;;;;;;8.25;5.60;;;17.00;99.90;;;;;;6100090;23;20097;-74
2022/06/27 02:01:35;;;;;;;8.75;5.82;;;17.00;99.90;;;;;;6100665;23;20368;-73
2022/06/27 02:04:05;;;;;;;8.73;5.75;;;17.00;99.90;;;;;;6100697;23;20014;-75
2022/06/27 02:06:31;;;;;;;10.93;5.70;;;17.00;99.90;;;;;;6076654;23;20028;-74
2022/06/27 02:09:04;;;;;;;9.45;5.70;;;17.00;99.90;;;;;;6099755;23;20009;-74
2022/06/27 02:11:35;;;;;;;9.27;5.65;;;17.00;99.90;;;;;;6127761;23;20010;-74
2022/06/27 02:14:04;;;;;;;10.65;5.65;;;17.10;99.90;;;;;;6112431;23;20018;-74
2022/06/27 02:16:32;;;;;;;13.75;5.72;;;17.10;99.90;;;;;;6081311;23;20021;-74
2022/06/27 02:18:58;;;;;;;9.18;5.55;;;17.10;99.90;;;;;;6126276;23;20010;-75
2022/06/27 02:21:27;;;;;;;8.52;5.00;;;17.10;99.90;;;;;;6076630;23;20464;-74
2022/06/27 02:23:55;;;;;;;12.95;6.22;;;17.00;99.90;;;;;;6100188;23;20014;-75
2022/06/27 02:26:24;;;;;;;12.18;5.50;;;17.10;99.90;;;;;;6076952;23;20130;-73
2022/06/27 02:28:54;;;;;;;8.10;5.07;;;17.00;99.90;;;;;;6099907;23;20314;-74
2022/06/27 02:31:23;;;;;;;10.52;5.53;;;17.10;99.90;;;;;;6076251;23;20022;-74
2022/06/27 02:33:53;;;;;;;11.48;5.20;;;17.10;99.90;;;;;;6076272;23;20445;-74
2022/06/27 02:36:43;;;;;;;11.88;5.35;;;17.10;99.90;;;;;;6100637;23;20009;-74
2022/06/27 02:39:15;;;;;;;7.50;4.90;;;17.00;99.90;;;;;;6075320;23;20017;-75
2022/06/27 02:41:44;;;;;;;7.82;4.65;;;17.10;99.90;;;;;;6076530;23;20082;-76
2022/06/27 02:44:12;;;;;;;11.23;5.10;;;17.10;99.90;;;;;;6076427;23;20018;-73
2022/06/27 02:46:39;;;;;;;9.15;5.05;;;17.10;99.90;;;;;;6101251;23;20094;-74
2022/06/27 02:49:09;;;;;;;10.57;5.32;;;17.00;99.90;;;;;;6102163;23;20366;-74
2022/06/27 02:52:00;;;;;;;9.98;4.90;;;17.00;99.90;;;;;;6102337;23;20093;-74
2022/06/27 02:54:47;;;;;;;9.40;5.07;;;17.00;99.90;;;;;;6128461;23;20088;-75
2022/06/27 02:57:35;;;;;;;7.78;5.53;;;17.00;99.90;;;;;;6077946;23;20045;-74
2022/06/27 03:00:08;;;;;;;12.85;5.75;;;17.00;99.90;;;;;;6101775;23;20029;-75
2022/06/27 03:02:38;;;;;;;10.88;5.75;;;17.00;99.90;;;;;;6078128;23;20089;-74
2022/06/27 03:05:05;;;;;;;8.68;5.78;;;17.00;99.90;;;;;;6078375;23;20053;-74
2022/06/27 03:07:42;;;;;;;16.17;7.90;;;17.00;99.90;;;;;;6055362;23;20022;-76
2022/06/27 03:10:09;;;;;;;8.52;6.43;;;16.90;99.90;;;;;;6077063;23;20509;-75
2022/06/27 03:12:38;;;;;;;10.05;7.15;;;16.90;99.90;;;;;;6101817;23;20030;-74
2022/06/27 03:15:04;;;;;;;10.77;6.82;;;16.90;99.90;;;;;;6078544;23;20329;-74
2022/06/27 03:17:30;;;;;;;15.88;7.30;;;16.90;99.90;;;;;;6101798;23;20014;-75
2022/06/27 03:19:56;;;;;;;8.88;6.28;;;16.80;99.90;;;;;;6054295;23;20101;-73
2022/06/27 03:22:24;;;;;;;13.25;6.07;;;16.80;99.90;;;;;;6078042;23;20022;-74
2022/06/27 03:24:55;;;;;;;12.20;7.07;;;16.80;99.90;;;;;;6101725;23;20049;-74
2022/06/27 03:27:24;;;;;;;8.18;5.78;;;16.90;99.90;;;;;;6077735;23;20057;-74
2022/06/27 03:29:52;;;;;;;9.55;6.18;;;16.80;99.90;;;;;;6077696;23;20020;-74
2022/06/27 03:32:21;;;;;;;14.02;7.00;;;16.80;99.90;;;;;;6101728;23;20014;-74
2022/06/27 03:34:49;;;;;;;9.13;6.60;;;16.80;99.90;;;;;;6078155;23;20010;-75
2022/06/27 03:37:19;;;;;;;10.95;6.28;;;16.90;99.90;;;;;;6127297;23;20002;-73
2022/06/27 03:39:45;;;;;;;10.20;6.97;;;16.80;99.90;;;;;;6077490;23;20373;-73
2022/06/27 03:42:16;;;;;;;15.10;7.35;;;16.80;99.90;;;;;;6078071;23;20018;-74
2022/06/27 03:44:42;;;;;;;8.07;6.13;;;16.80;99.90;;;;;;6104449;23;20018;-74
2022/06/27 03:47:10;;;;;;;12.45;5.95;;;16.80;99.90;;;;;;6065928;23;20022;-75
2022/06/27 03:52:29;;;;;;;9.27;6.70;;;16.80;99.90;;;;;;6082819;23;20322;-74
2022/06/27 03:54:55;;;;;;;10.35;5.78;;;16.80;99.90;;;;;;6101935;23;20067;-74
2022/06/27 03:57:24;;;;;;;9.13;5.80;;;16.80;99.90;;;;;;6101817;23;20125;-74
2022/06/27 04:00:01;;;;;;;15.25;7.00;;;16.80;99.90;;;;;;6101778;23;20053;-74
2022/06/27 04:02:27;;;;;;;14.10;7.80;;;16.80;99.90;;;;;;6101642;23;20014;-74
2022/06/27 04:04:53;;;;;;;;;;;16.80;99.90;;;;;;6078272;23;20511;-73
2022/06/27 04:07:24;;;;;;;16.08;9.23;;;16.80;99.90;;;;;;6101402;23;19912;-74
2022/06/27 04:09:50;;;;;;;13.88;7.18;;;16.80;99.90;;;;;;6101875;23;20333;-74
2022/06/27 04:12:16;;;;;;;14.00;6.60;;;16.90;99.90;;;;;;6127645;23;20024;-74
2022/06/27 04:14:44;;;;;;;12.65;7.03;;;16.80;99.90;;;;;;6102465;23;20021;-74
2022/06/27 04:17:10;;;;;;;12.10;7.35;;;16.80;99.90;;;;;;6101283;23;20014;-75
2022/06/27 04:19:36;;;;;;;11.18;6.78;;;16.80;99.90;;;;;;6101824;23;20089;-74
2022/06/27 04:22:04;;;;;;;18.20;7.72;;;16.80;99.90;;;;;;6101078;23;20128;-74
2022/06/27 04:24:30;;;;;;;11.77;7.65;;;16.90;99.90;;;;;;6100272;23;20413;-74
2022/06/27 04:26:59;;;;;;;10.32;8.15;;;16.90;99.90;;;;;;6101085;23;20014;-76
2022/06/27 04:29:26;;;;;;;10.40;7.57;;;16.80;99.90;;;;;;6105171;23;20018;-74
2022/06/27 04:31:54;;;;;;;15.07;7.97;;;16.80;99.90;;;;;;6084140;23;20431;-74
2022/06/27 04:34:20;;;;;;;13.60;8.00;;;16.80;99.90;;;;;;6080362;23;20017;-74
2022/06/27 04:36:46;;;;;;;14.85;6.53;;;16.80;99.90;;;;;;6127443;23;20016;-76
2022/06/27 04:39:17;;;;;;;10.57;6.65;;;16.80;99.90;;;;;;6077030;23;20324;-73
2022/06/27 04:41:45;;;;;;;11.60;6.63;;;16.90;99.90;;;;;;6100740;23;20009;-74
2022/06/27 04:44:11;;;;;;;12.60;7.00;;;17.00;99.90;;;;;;6076726;23;20014;-74
2022/06/27 04:46:41;;;;;;;12.25;7.00;;;17.10;99.90;;;;;;6127286;23;20324;-75
2022/06/27 04:49:12;;;;;;;10.07;6.13;;;17.20;99.90;;;;;;6100221;23;20013;-75
2022/06/27 04:51:39;;;;;;;12.05;6.95;;;17.20;99.90;;;;;;6100972;23;20082;-74
2022/06/27 04:54:04;;;;;;;22.40;6.68;;;17.30;99.90;;;;;;6101054;23;20388;-74
2022/06/27 04:56:30;;;;;;;8.50;6.30;;;17.40;99.90;;;;;;6101369;23;20041;-74
2022/06/27 04:58:56;;;;;;;9.45;5.97;;;17.40;99.90;;;;;;6076929;23;20020;-74
2022/06/27 05:01:24;;;;;;;10.98;5.55;;;17.60;99.90;;;;;;6100820;23;20053;-73
2022/06/27 05:03:53;;;;;;;8.27;5.13;;;17.80;99.90;;;;;;6077325;23;20022;-74
2022/06/27 05:06:18;;;;;;;11.38;5.35;;;18.00;99.90;;;;;;6077200;23;20006;-75
2022/06/27 05:08:47;;;;;;;10.88;5.07;;;18.10;99.90;;;;;;6076396;23;20450;-74
2022/06/27 05:11:13;;;;;;;8.65;4.88;;;18.10;99.90;;;;;;6076340;23;20385;-73
2022/06/27 05:13:38;;;;;;;8.60;4.90;;;18.20;99.90;;;;;;6100790;23;20050;-72
2022/06/27 05:16:06;;;;;;;9.52;5.70;;;18.40;99.90;;;;;;6100677;23;20098;-74
2022/06/27 05:18:35;;;;;;;10.27;5.95;;;18.50;99.70;;;;;;6076615;23;20094;-74
2022/06/27 05:21:03;;;;;;;10.23;5.20;;;18.60;99.90;;;;;;6076896;23;20090;-73
2022/06/27 05:23:32;;;;;;;10.07;5.55;;;18.70;99.90;;;;;;6076535;23;20014;-75
2022/06/27 05:26:01;;;;;;;9.32;5.85;;;18.80;99.90;;;;;;6100736;23;20472;-75
2022/06/27 05:28:27;;;;;;;11.10;5.85;;;19.00;99.90;;;;;;6100790;23;20014;-74
2022/06/27 05:30:55;;;;;;;12.13;6.03;;;19.00;99.70;;;;;;6076784;23;20333;-74
2022/06/27 05:33:23;;;;;;;13.75;6.40;;;19.00;99.60;;;;;;6126450;23;20018;-73
2022/06/27 05:35:50;;;;;;;12.50;7.10;;;19.00;99.30;;;;;;6126417;23;20031;-75
2022/06/27 05:38:18;;;;;;;13.65;6.60;;;19.00;99.20;;;;;;6076209;23;20095;-75
2022/06/27 05:40:45;;;;;;;10.63;6.18;;;19.10;99.30;;;;;;6126160;23;20010;-74
2022/06/27 05:43:14;;;;;;;12.65;6.03;;;19.20;99.40;;;;;;6100821;23;20053;-75
2022/06/27 05:45:40;;;;;;;11.82;6.38;;;19.20;99.60;;;;;;6100694;23;20018;-74
2022/06/27 05:48:07;;;;;;;11.95;7.00;;;19.20;99.60;;;;;;6052689;23;20022;-74
2022/06/27 05:50:33;;;;;;;9.82;7.20;;;19.20;99.70;;;;;;6074985;23;20020;-73
2022/06/27 05:53:01;;;;;;;10.23;7.03;;;19.20;99.90;;;;;;6100701;23;20013;-73
2022/06/27 05:55:31;;;;;;;11.70;7.00;;;19.20;99.90;;;;;;6100718;23;20014;-73
2022/06/27 05:58:02;;;;;;;10.90;6.78;;;19.20;99.90;;;;;;6100939;23;20021;-73
2022/06/27 06:00:29;;;;;;;13.63;6.82;;;19.20;99.90;;;;;;6101333;23;20020;-74
2022/06/27 06:02:56;;;;;;;9.30;6.80;;;19.10;99.90;;;;;;6106089;23;20022;-74
2022/06/27 06:05:28;;;;;;;11.55;6.93;;;19.00;99.90;;;;;;6057009;23;20021;-75
2022/06/27 06:08:02;;;;;;;12.10;7.25;;;19.00;99.90;;;;;;6100842;23;20026;-74
2022/06/27 06:10:33;;;;;;;10.70;7.43;;;18.90;99.90;;;;;;6076189;23;20006;-74
2022/06/27 06:13:02;;;;;;;11.38;7.80;;;18.90;99.90;;;;;;6126550;23;20050;-75
2022/06/27 06:15:31;;;;;;;11.57;7.68;;;19.10;99.90;;;;;;6076816;23;20053;-74
2022/06/27 06:18:01;;;;;;;12.25;7.68;;;19.10;99.90;;;;;;6076305;23;20097;-75
2022/06/27 06:20:32;;;;;;;11.70;7.90;;;19.30;99.90;;;;;;6100373;23;20009;-74
2022/06/27 06:22:59;;;;;;;10.80;7.10;;;19.40;99.60;;;;;;6076881;23;20006;-73
2022/06/27 06:25:26;;;;;;;12.23;7.57;;;19.30;99.50;;;;;;6100161;23;20444;-76
2022/06/27 06:27:56;;;;;;;14.23;7.72;;;19.30;98.60;;;;;;6100480;23;20045;-74
2022/06/27 06:30:24;;;;;;;11.27;7.55;;;19.40;99.50;;;;;;6100072;23;20017;-74
2022/06/27 06:32:54;;;;;;;11.65;8.63;;;19.40;99.40;;;;;;6052556;23;20045;-75
2022/06/27 06:35:30;;;;;;;11.23;7.15;;;19.50;99.10;;;;;;6100326;23;20093;-74
2022/06/27 06:37:59;;;;;;;12.90;7.15;;;19.60;99.10;;;;;;6100225;23;20045;-75
2022/06/27 06:40:27;;;;;;;12.68;7.03;;;19.60;99.00;;;;;;6052551;23;20041;-74
2022/06/27 06:42:53;;;;;;;15.35;7.95;;;19.60;98.70;;;;;;6100577;23;20049;-75
2022/06/27 06:45:26;;;;;;;12.30;7.57;;;19.60;98.80;;;;;;6076186;23;20014;-74
2022/06/27 06:47:55;;;;;;;11.38;7.55;;;19.70;99.00;;;;;;6075510;23;20014;-76
2022/06/27 06:50:21;;;;;;;14.98;7.30;;;19.70;99.00;;;;;;6100130;23;20021;-74
2022/06/27 06:52:58;;;;;;;12.90;6.70;;;19.80;98.90;;;;;;6126491;23;20018;-74
2022/06/27 06:55:34;;;;;;;11.63;7.05;;;19.70;98.40;;;;;;6100183;23;20021;-74
2022/06/27 06:58:06;;;;;;;15.20;7.80;;;19.80;98.40;;;;;;6076914;23;20077;-74
2022/06/27 07:00:34;;;;;;;11.95;6.97;;;19.80;98.50;;;;;;6099773;23;20479;-73
2022/06/27 07:03:01;;;;;;;12.73;6.53;;;19.90;98.70;;;;;;6075906;23;20434;-69
2022/06/27 07:05:28;;;;;;;12.52;6.75;;;19.90;98.70;;;;;;6100670;23;20152;-67
2022/06/27 07:07:53;;;;;;;12.57;6.78;;;19.90;98.30;;;;;;6125998;23;20018;-67
2022/06/27 07:10:20;;;;;;;11.52;7.28;;;19.90;98.20;;;;;;6125739;23;20014;-67
2022/06/27 07:12:46;;;;;;;10.75;7.47;;;19.80;97.90;;;;;;6100414;23;20010;-67
2022/06/27 07:15:13;;;;;;;13.88;8.32;;;19.70;98.30;;;;;;6100950;23;20072;-67
2022/06/27 07:17:45;;;;;;;12.25;8.10;;;19.70;97.70;;;;;;6100758;23;20014;-67
2022/06/27 07:20:12;;;;;;;11.95;7.72;;;19.40;98.50;;;;;;6100036;23;20022;-67
2022/06/27 07:22:42;;;;;;;12.02;8.25;;;19.40;98.60;;;;;;6100043;23;20010;-68
2022/06/27 07:25:09;;;;;;;12.48;8.55;;;19.20;98.90;;;;;;6126658;23;20105;-66
2022/06/27 07:27:35;;;;;;;11.98;8.90;;;19.20;99.20;;;;;;6126289;23;20298;-67
2022/06/27 07:30:05;;;;;;;12.77;9.25;;;19.20;99.50;;;;;;6076102;23;20096;-64
2022/06/27 07:32:31;;;;;;;15.82;10.63;;;19.30;99.70;;;;;;6098478;23;20324;-68
2022/06/27 07:34:58;;;;;;;13.70;8.98;;;19.20;99.90;;;;;;6128801;23;20045;-69
2022/06/27 07:37:25;;;;;;;11.07;8.63;;;19.20;99.70;;;;;;6100735;23;20018;-67
2022/06/27 07:39:51;;;;;;;12.82;8.20;;;19.30;99.20;;;;;;6100454;23;20021;-66
2022/06/27 07:42:17;;;;;;;11.15;8.77;;;19.20;99.30;;;;;;6126375;23;20018;-67
2022/06/27 07:44:42;;;;;;;12.52;9.00;;;19.30;99.80;;;;;;6100475;23;20021;-65
2022/06/27 07:47:09;;;;;;;12.43;7.97;;;19.20;99.70;;;;;;6076405;23;20025;-65
2022/06/27 07:49:34;;;;;;;;;;;19.40;99.60;;;;;;6100468;23;20014;-66
2022/06/27 07:52:00;;;;;;;13.85;7.72;;;19.30;99.60;;;;;;6100565;23;19951;-68
2022/06/27 07:54:27;;;;;;;11.02;7.75;;;19.40;98.50;;;;;;6100693;23;20093;-68
2022/06/27 07:56:53;;;;;;;12.15;7.82;;;19.20;98.60;;;;;;6127279;23;20390;-68
2022/06/27 07:59:19;;;;;;;12.15;8.02;;;19.30;98.60;;;;;;6077543;23;20456;-67
2022/06/27 08:01:45;;;;;;;13.13;7.55;;;19.30;98.70;;;;;;6127801;23;20017;-65
2022/06/27 08:04:13;;;;;;;13.20;8.27;;;19.30;98.70;;;;;;6098450;23;20013;-69
2022/06/27 08:06:39;;;;;;;16.67;8.68;;;19.40;98.90;;;;;;6125059;23;20465;-67
2022/06/27 08:09:06;;;;;;;15.43;9.10;;;19.40;98.80;;;;;;6099761;23;20021;-67
2022/06/27 08:11:37;;;;;;;11.98;8.43;;;19.50;98.90;;;;;;6126406;23;20018;-65
2022/06/27 08:14:12;;;;;;;13.40;8.27;;;19.60;98.70;;;;;;6099936;23;20413;-66
2022/06/27 08:16:39;;;;;;;10.27;7.85;;;19.60;98.70;;;;;;6076723;23;20014;-65
2022/06/27 08:19:06;;;;;;;13.88;8.20;;;19.60;98.60;;;;;;6125734;23;20013;-68
2022/06/27 08:21:34;;;;;;;10.43;7.70;;;19.70;98.60;;;;;;6126289;23;20014;-67
2022/06/27 08:24:07;;;;;;;14.85;7.50;;;19.60;98.60;;;;;;6076160;23;20437;-68
2022/06/27 08:26:34;;;;;;;10.77;7.00;;;19.70;98.50;;;;;;6100468;23;20018;-68
2022/06/27 08:29:02;;;;;;;12.07;7.70;;;19.80;98.40;;;;;;6099260;23;20425;-67
2022/06/27 08:31:30;;;;;;;10.10;7.60;;;19.80;98.40;;;;;;6100428;23;20014;-66
2022/06/27 08:33:58;;;;;;;15.23;8.40;;;19.80;98.30;;;;;;6099773;23;20072;-67
2022/06/27 08:36:26;;;;;;;10.63;7.68;;;19.80;98.20;;;;;;6076675;23;20013;-66
2022/06/27 08:38:52;;;;;;;13.68;8.63;;;19.70;98.50;;;;;;6099871;23;20499;-65
2022/06/27 08:41:21;;;;;;;16.58;7.90;;;19.80;98.60;;;;;;6076329;23;20101;-65
2022/06/27 08:44:04;;;;;;;13.13;8.15;;;19.90;98.50;;;;;;6099258;23;20022;-65
2022/06/27 08:46:30;;;;;;;14.32;8.02;;;20.00;98.20;;;;;;6077503;23;20072;-65
2022/06/27 08:48:56;;;;;;;;;;;19.90;98.40;;;;;;6077186;23;20370;-66
2022/06/27 08:51:22;;;;;;;18.15;9.18;;;19.90;98.90;;;;;;6127376;23;19917;-65
2022/06/27 08:53:55;;;;;;;;;;;20.00;98.70;;;;;;6101880;23;20013;-66
2022/06/27 08:56:22;;;;;;;14.38;9.88;;;20.00;99.20;;;;;;6077471;23;19948;-65
2022/06/27 08:58:50;;;;;;;17.58;9.52;;;20.10;99.00;;;;;;6100873;23;20083;-65
2022/06/27 09:01:23;;;;;;;13.95;8.82;;;20.40;99.00;;;;;;6127310;23;20021;-65
2022/06/27 09:03:58;;;;;;;13.15;8.63;;;20.50;98.70;;;;;;6101475;23;20014;-65
2022/06/27 09:06:26;;;;;;;12.90;9.45;;;20.70;96.60;;;;;;6077432;23;20088;-67
2022/06/27 09:09:04;;;;;;;13.68;8.48;;;20.70;97.20;;;;;;6100125;23;20093;-65
2022/06/27 09:11:31;;;;;;;12.90;8.30;;;20.60;96.90;;;;;;6101651;23;20045;-66
2022/06/27 09:13:58;;;;;;;15.60;8.50;;;20.70;97.20;;;;;;6126454;23;20350;-66
2022/06/27 09:16:24;;;;;;;13.40;8.18;;;21.00;96.90;;;;;;6101136;23;20021;-70
2022/06/27 09:18:53;;;;;;;15.20;8.23;;;20.90;96.20;;;;;;6126895;23;20049;-77
2022/06/27 09:21:18;;;;;;;14.75;8.25;;;21.10;96.00;;;;;;6076461;23;20014;-76
2022/06/27 09:23:59;;;;;;;12.43;8.48;;;21.20;96.10;;;;;;6100324;23;20018;-75
2022/06/27 09:26:31;;;;;;;12.75;7.70;;;21.30;95.10;;;;;;6101045;23;20014;-75
2022/06/27 09:29:04;;;;;;;15.07;7.70;;;21.60;95.50;;;;;;6101032;23;20018;-72
2022/06/27 09:31:35;;;;;;;11.20;7.60;;;21.40;93.70;;;;;;6100936;23;20014;-72
2022/06/27 09:34:08;;;;;;;15.00;7.68;;;21.30;93.40;;;;;;6126802;23;20026;-72
2022/06/27 09:36:36;;;;;;;16.55;6.75;;;21.50;93.70;;;;;;6101469;23;20048;-72
2022/06/27 09:39:07;;;;;;;10.60;6.10;;;21.50;91.90;;;;;;6076995;23;20028;-73
2022/06/27 09:42:02;;;;;;;14.35;5.90;;;21.80;93.20;;;;;;6076276;23;20062;-78
2022/06/27 09:44:44;;;;;;;12.73;6.38;;;22.00;92.50;;;;;;6100447;23;20014;-78
2022/06/27 09:47:19;;;;;;;9.15;6.50;;;22.00;92.80;;;;;;6077184;23;20014;-73
2022/06/27 09:50:07;;;;;;;14.77;6.88;;;21.80;91.80;;;;;;6100709;23;20006;-77
2022/06/27 09:52:44;;;;;;;11.27;6.40;;;22.00;91.80;;;;;;6098000;23;20013;-75
2022/06/27 09:55:10;;;;;;;20.38;7.45;;;21.70;91.80;;;;;;6076088;23;20010;-76
2022/06/27 09:57:38;;;;;;;;;;;21.60;91.90;;;;;;6076927;23;20088;-73
2022/06/27 10:00:20;;;;;;;12.30;6.88;;;21.60;91.40;;;;;;6075666;23;19909;-74
2022/06/27 10:02:53;;;;;;;11.00;5.93;;;21.60;92.60;;;;;;6076900;23;20010;-74
2022/06/27 10:05:20;;;;;;;10.32;5.75;;;21.60;92.00;;;;;;6076837;23;20014;-75
2022/06/27 10:08:02;;;;;;;11.23;5.10;;;21.70;92.40;;;;;;6076780;23;20021;-75
2022/06/27 10:10:53;;;;;;;10.20;4.20;;;21.80;92.70;;;;;;6076689;23;20006;-75
2022/06/27 10:13:30;;;;;;;10.70;4.35;;;21.90;91.80;;;;;;6075733;23;20017;-75
2022/06/27 10:16:17;;;;;;;7.95;4.15;;;22.10;91.30;;;;;;6077650;23;20075;-76
2022/06/27 10:19:03;;;;;;;9.57;4.15;;;22.20;89.20;;;;;;6075808;23;20321;-74
2022/06/27 10:21:40;;;;;;;9.10;4.37;;;22.30;90.30;;;;;;6077569;23;20068;-74
2022/06/27 10:24:24;;;;;;;10.50;4.32;;;22.20;90.90;;;;;;6085685;23;20017;-74
2022/06/27 10:27:07;;;;;;;7.90;4.55;;;22.20;90.50;;;;;;6080388;23;20105;-76
2022/06/27 10:29:44;;;;;;;9.73;4.68;;;22.20;90.60;;;;;;6052710;23;20006;-75
2022/06/27 10:32:44;;;;;;;11.10;4.90;;;22.40;90.10;;;;;;6098612;23;20021;-75
2022/06/27 10:35:19;;;;;;;7.68;4.32;;;22.40;88.90;;;;;;6027183;23;20006;-74
2022/06/27 10:37:50;;;;;;;9.45;4.18;;;22.30;90.30;;;;;;6099966;23;20006;-76
2022/06/27 10:40:24;;;;;;;7.65;3.75;;;22.40;89.60;;;;;;6076596;23;20076;-76
2022/06/27 10:43:07;;;;;;;12.00;4.13;;;22.40;90.50;;;;;;6077007;23;20065;-75
2022/06/27 10:45:53;;;;;;;6.97;3.90;;;22.60;89.50;;;;;;6074721;23;20049;-76
2022/06/27 10:48:51;;;;;;;11.27;4.30;;;22.50;86.60;;;;;;6076105;23;20111;-76
2022/06/27 10:51:34;;;;;;;8.40;4.00;;;22.50;88.20;;;;;;6100460;23;20014;-75
2022/06/27 10:54:08;;;;;;;7.95;4.05;;;22.20;89.20;;;;;;6077016;23;20492;-75
2022/06/27 10:56:53;;;;;;;6.05;3.92;;;22.10;89.00;;;;;;6076120;23;20010;-76
2022/06/27 10:59:30;;;;;;;10.23;3.88;;;22.00;87.90;;;;;;6100592;23;20018;-75
2022/06/27 11:02:04;;;;;;;8.90;4.25;;;21.90;90.20;;;;;;6100406;23;20088;-76
2022/06/27 11:04:35;;;;;;;5.82;3.40;;;21.80;90.00;;;;;;6076387;23;20056;-74
2022/06/27 11:10:29;;;;;;;7.50;3.00;;;21.80;90.80;;;;;;6101265;23;20181;-78
2022/06/27 11:34:02;;;;;;;20.65;4.50;;;21.90;89.30;;;;;;6072883;23;20022;-72
2022/06/27 11:37:07;;;;;;;9.65;4.55;;;21.90;88.90;;;;;;6048713;23;20069;-77
2022/06/27 11:39:39;;;;;;;9.40;4.40;;;21.90;89.90;;;;;;6047196;23;20010;-73
2022/06/27 11:46:00;;;;;;;8.32;4.30;;;22.20;89.10;;;;;;6099293;23;20009;-73
2022/06/27 11:56:25;;;;;;;9.30;4.55;;;23.00;89.30;;;;;;5980000;24;20060;-75
2022/06/27 11:59:28;;;;;;;9.95;4.75;;;23.30;88.60;;;;;;5939419;23;20022;-74
2022/06/27 12:02:03;;;;;;;10.27;4.80;;;23.30;86.10;;;;;;6045540;23;20015;-72
2022/06/27 12:04:43;;;;;;;9.20;4.43;;;23.30;88.00;;;;;;6097172;23;20015;-73
2022/06/27 12:07:10;;;;;;;10.55;5.00;;;23.30;87.70;;;;;;6070997;23;20010;-71
2022/06/27 12:10:31;;;;;;;9.20;4.28;;;23.30;87.70;;;;;;6047451;23;20046;-80
2022/06/27 12:12:58;;;;;;;7.30;4.03;;;23.40;84.50;;;;;;6071495;23;20006;-71
2022/06/27 12:15:26;;;;;;;7.97;3.70;;;23.50;85.30;;;;;;6047635;23;20426;-72
2022/06/27 12:18:58;;;;;;;9.18;3.97;;;23.60;85.50;;;;;;6070977;23;20010;-74
2022/06/27 12:25:38;;;;;;;9.00;3.65;;;23.70;81.90;;;;;;6036302;23;20083;-75
2022/06/27 12:28:43;;;;;;;7.55;4.15;;;23.50;79.70;;;;;;6036714;23;20311;-76
2022/06/27 12:31:09;;;;;;;8.43;4.22;;;23.30;82.20;;;;;;5994666;23;20015;-71
2022/06/27 12:33:56;;;;;;;;;;;23.10;84.30;;;;;;6065741;23;20022;-72
2022/06/27 12:36:45;;;;;;;8.73;4.32;;;23.10;84.70;;;;;;6019103;23;19933;-73
2022/06/27 12:39:11;;;;;;;;;;;23.00;84.60;;;;;;6066290;23;20081;-70
2022/06/27 12:41:37;;;;;;;11.50;4.38;;;23.10;82.30;;;;;;6041191;23;19909;-70
2022/06/27 12:44:27;;;;;;;8.45;4.05;;;22.80;84.10;;;;;;6017235;23;20010;-73
2022/06/27 12:46:53;;;;;;;6.43;3.85;;;22.90;81.90;;;;;;6018775;23;20018;-69
2022/06/27 12:49:18;;;;;;;;;;;22.80;84.30;;;;;;6065565;23;20021;-69
2022/06/27 12:51:50;;;;;;;8.98;4.35;;;22.90;84.10;;;;;;6064858;23;20321;-74
2022/06/27 12:54:16;;;;;;;7.55;4.63;;;22.90;83.00;;;;;;6064476;23;20019;-69
2022/06/27 12:56:42;;;;;;;;;;;22.90;83.90;;;;;;6108364;23;20069;-73
2022/06/27 12:59:10;;;;;;;9.93;4.43;;;22.70;81.90;;;;;;6098986;23;19913;-73
2022/06/27 13:01:44;;;;;;;6.53;3.50;;;22.60;83.80;;;;;;6125925;23;20325;-73
2022/06/27 13:04:44;;;;;;;4.95;2.20;;;22.70;82.50;;;;;;6075175;23;20014;-76
2022/06/27 13:07:38;;;;;;;10.45;2.70;;;22.70;77.90;;;;;;6074751;23;20010;-74
2022/06/27 13:14:00;;;;;;;5.45;2.38;;;22.70;82.60;;;;;;6025284;23;20038;-71
2022/06/27 13:16:57;;;;;;;6.00;2.58;;;22.80;80.90;;;;;;5960871;23;20018;-78
2022/06/27 13:19:26;;;;;;;7.22;2.85;;;22.90;80.00;;;;;;6012184;23;20039;-69
2022/06/27 13:21:51;;;;;;;;;;;22.70;80.20;;;;;;6012729;23;20090;-69
2022/06/27 13:24:17;;;;;;;10.55;3.40;;;22.70;80.70;;;;;;6055441;23;19913;-68
2022/06/27 13:26:43;;;;;;;;;;;22.50;82.10;;;;;;6100283;23;20018;-69
2022/06/27 13:29:08;;;;;;;7.63;3.53;;;22.40;81.50;;;;;;6076429;23;20000;-74
2022/06/27 13:31:34;;;;;;;;;;;22.40;81.70;;;;;;6077390;23;20089;-72
2022/06/27 13:34:00;;;;;;;8.05;3.35;;;22.30;81.10;;;;;;6100591;23;19913;-75
2022/06/27 13:36:26;;;;;;;;;;;22.30;82.40;;;;;;6053719;23;20329;-74
2022/06/27 13:38:51;;;;;;;6.68;3.30;;;22.30;83.30;;;;;;6101041;23;19916;-75
2022/06/27 13:41:17;;;;;;;;;;;22.40;83.10;;;;;;6077015;23;20025;-74
2022/06/27 13:43:42;;;;;;;7.82;3.10;;;22.50;83.10;;;;;;6100787;23;19940;-72
2022/06/27 13:46:08;;;;;;;;;;;22.50;83.90;;;;;;6101626;23;20014;-70
2022/06/27 13:48:34;;;;;;;7.78;3.40;;;22.50;86.40;;;;;;6126602;23;19913;-72
2022/06/27 13:50:59;;;;;;;;;;;22.50;85.30;;;;;;6101286;23;20144;-73